sensor_id;sensor_type;location;lat;lon;timestamp;pressure;altitude;pressure_sealevel;temperature;humidity
12178;BME280;6152;48.728;9.256;2022-08-03T00:00:15;97167.63;;;19.48;100.00
12178;BME280;6152;48.728;9.256;2022-08-03T00:02:41;97166.28;;;19.44;100.00
12178;BME280;6152;48.728;9.256;2022-08-03T00:05:07;97169.16;;;19.41;100.00
12178;BME280;6152;48.728;9.256;2022-08-03T00:07:34;97167.78;;;19.37;100.00
12178;BME280;6152;48.728;9.256;2022-08-03T00:10:00;97167.78;;;19.37;100.00
12178;BME280;6152;48.728;9.256;2022-08-03T00:12:26;97163.78;;;19.33;100.00
12178;BME280;6152;48.728;9.256;2022-08-03T00:14:52;97164.06;;;19.30;100.00
12178;BME280;6152;48.728;9.256;2022-08-03T00:17:19;97162.41;;;19.29;100.00
12178;BME280;6152;48.728;9.256;2022-08-03T00:19:45;97162.69;;;19.26;100.00
12178;BME280;6152;48.728;9.256;2022-08-03T00:22:11;97157.72;;;19.23;100.00
12178;BME280;6152;48.728;9.256;2022-08-03T00:24:37;97158.81;;;19.21;100.00
12178;BME280;6152;48.728;9.256;2022-08-03T00:27:03;97160.78;;;19.18;100.00
12178;BME280;6152;48.728;9.256;2022-08-03T00:29:30;97155.50;;;19.18;100.00
12178;BME280;6152;48.728;9.256;2022-08-03T00:31:56;97152.19;;;19.16;100.00
12178;BME280;6152;48.728;9.256;2022-08-03T00:34:22;97159.28;;;19.16;100.00
12178;BME280;6152;48.728;9.256;2022-08-03T00:36:48;97154.97;;;19.15;100.00
12178;BME280;6152;48.728;9.256;2022-08-03T00:39:14;97158.56;;;19.14;100.00
12178;BME280;6152;48.728;9.256;2022-08-03T00:41:40;97153.28;;;19.14;100.00
12178;BME280;6152;48.728;9.256;2022-08-03T00:44:06;97152.91;;;19.09;100.00
12178;BME280;6152;48.728;9.256;2022-08-03T00:46:32;97155.53;;;19.09;100.00
12178;BME280;6152;48.728;9.256;2022-08-03T00:48:58;97154.16;;;19.05;100.00
12178;BME280;6152;48.728;9.256;2022-08-03T00:51:24;97151.81;;;19.02;100.00
12178;BME280;6152;48.728;9.256;2022-08-03T00:53:51;97142.53;;;18.98;100.00
12178;BME280;6152;48.728;9.256;2022-08-03T00:56:17;97149.75;;;18.96;100.00
12178;BME280;6152;48.728;9.256;2022-08-03T00:58:45;97146.72;;;18.91;100.00
12178;BME280;6152;48.728;9.256;2022-08-03T01:01:11;97152.94;;;18.90;100.00
12178;BME280;6152;48.728;9.256;2022-08-03T01:03:38;97152.16;;;18.89;100.00
12178;BME280;6152;48.728;9.256;2022-08-03T01:16:36;97145.94;;;18.71;100.00
12178;BME280;6152;48.728;9.256;2022-08-03T01:28:18;97137.06;;;18.62;100.00
12178;BME280;6152;48.728;9.256;2022-08-03T01:30:48;97135.69;;;18.58;100.00
12178;BME280;6152;48.728;9.256;2022-08-03T01:33:31;97131.53;;;18.56;100.00
12178;BME280;6152;48.728;9.256;2022-08-03T01:36:23;97123.91;;;18.53;100.00
12178;BME280;6152;48.728;9.256;2022-08-03T01:38:54;97122.41;;;18.50;100.00
12178;BME280;6152;48.728;9.256;2022-08-03T01:41:29;97129.31;;;18.51;100.00
12178;BME280;6152;48.728;9.256;2022-08-03T01:43:58;97124.28;;;18.48;100.00
12178;BME280;6152;48.728;9.256;2022-08-03T01:46:25;97121.81;;;18.47;100.00
12178;BME280;6152;48.728;9.256;2022-08-03T01:48:53;97116.81;;;18.44;100.00
12178;BME280;6152;48.728;9.256;2022-08-03T01:51:20;97119.75;;;18.41;100.00
12178;BME280;6152;48.728;9.256;2022-08-03T01:53:49;97120.44;;;18.43;100.00
12178;BME280;6152;48.728;9.256;2022-08-03T01:56:17;97115.44;;;18.40;100.00
12178;BME280;6152;48.728;9.256;2022-08-03T01:58:45;97121.00;;;18.37;100.00
12178;BME280;6152;48.728;9.256;2022-08-03T02:01:13;97120.16;;;18.36;100.00
12178;BME280;6152;48.728;9.256;2022-08-03T02:03:42;97121.97;;;18.36;100.00
12178;BME280;6152;48.728;9.256;2022-08-03T02:06:11;97122.91;;;18.35;100.00
12178;BME280;6152;48.728;9.256;2022-08-03T02:08:39;97119.59;;;18.33;100.00
12178;BME280;6152;48.728;9.256;2022-08-03T02:11:07;97115.47;;;18.30;100.00
12178;BME280;6152;48.728;9.256;2022-08-03T02:13:34;97117.38;;;18.28;100.00
12178;BME280;6152;48.728;9.256;2022-08-03T02:16:02;97122.94;;;18.25;100.00
12178;BME280;6152;48.728;9.256;2022-08-03T02:18:31;97116.28;;;18.21;100.00
12178;BME280;6152;48.728;9.256;2022-08-03T02:21:00;97126.13;;;18.19;100.00
12178;BME280;6152;48.728;9.256;2022-08-03T02:23:27;97118.53;;;18.16;100.00
12178;BME280;6152;48.728;9.256;2022-08-03T02:25:57;97113.53;;;18.13;100.00
12178;BME280;6152;48.728;9.256;2022-08-03T02:28:37;97117.41;;;18.09;100.00
12178;BME280;6152;48.728;9.256;2022-08-03T02:31:10;97118.38;;;18.08;100.00
12178;BME280;6152;48.728;9.256;2022-08-03T02:33:51;97119.09;;;18.10;100.00
12178;BME280;6152;48.728;9.256;2022-08-03T02:36:26;97125.72;;;18.04;100.00
12178;BME280;6152;48.728;9.256;2022-08-03T02:38:55;97126.28;;;17.98;100.00
12178;BME280;6152;48.728;9.256;2022-08-03T02:41:28;97119.75;;;17.93;100.00
12178;BME280;6152;48.728;9.256;2022-08-03T02:43:58;97115.75;;;17.89;100.00
12178;BME280;6152;48.728;9.256;2022-08-03T02:46:33;97117.13;;;17.83;100.00
12178;BME280;6152;48.728;9.256;2022-08-03T02:49:01;97119.19;;;17.80;100.00
12178;BME280;6152;48.728;9.256;2022-08-03T02:51:31;97117.78;;;17.76;100.00
12178;BME280;6152;48.728;9.256;2022-08-03T02:54:00;97117.09;;;17.74;100.00
12178;BME280;6152;48.728;9.256;2022-08-03T02:56:28;97117.22;;;17.72;100.00
12178;BME280;6152;48.728;9.256;2022-08-03T02:58:56;97118.06;;;17.73;100.00
12178;BME280;6152;48.728;9.256;2022-08-03T03:01:24;97117.09;;;17.74;100.00
12178;BME280;6152;48.728;9.256;2022-08-03T03:03:53;97117.38;;;17.71;100.00
12178;BME280;6152;48.728;9.256;2022-08-03T03:06:20;97110.72;;;17.66;100.00
12178;BME280;6152;48.728;9.256;2022-08-03T03:08:47;97116.53;;;17.60;100.00
12178;BME280;6152;48.728;9.256;2022-08-03T03:11:16;97123.72;;;17.58;100.00
12178;BME280;6152;48.728;9.256;2022-08-03T03:13:43;97114.19;;;17.57;100.00
12178;BME280;6152;48.728;9.256;2022-08-03T03:16:11;97115.97;;;17.57;100.00
12178;BME280;6152;48.728;9.256;2022-08-03T03:18:39;97117.78;;;17.56;100.00
12178;BME280;6152;48.728;9.256;2022-08-03T03:21:07;97109.97;;;17.55;100.00
12178;BME280;6152;48.728;9.256;2022-08-03T03:23:39;97111.91;;;17.53;100.00
12178;BME280;6152;48.728;9.256;2022-08-03T03:26:06;97111.22;;;17.51;100.00
12178;BME280;6152;48.728;9.256;2022-08-03T03:28:33;97107.22;;;17.47;100.00
12178;BME280;6152;48.728;9.256;2022-08-03T03:31:04;97105.53;;;17.46;100.00
12178;BME280;6152;48.728;9.256;2022-08-03T03:33:33;97102.34;;;17.42;100.00
12178;BME280;6152;48.728;9.256;2022-08-03T03:36:00;97102.63;;;17.39;100.00
12178;BME280;6152;48.728;9.256;2022-08-03T03:38:27;97100.94;;;17.38;100.00
12178;BME280;6152;48.728;9.256;2022-08-03T03:40:55;97108.97;;;17.37;100.00
12178;BME280;6152;48.728;9.256;2022-08-03T03:43:22;97107.31;;;17.36;100.00
12178;BME280;6152;48.728;9.256;2022-08-03T03:45:49;97111.75;;;17.35;100.00
12178;BME280;6152;48.728;9.256;2022-08-03T03:48:16;97108.00;;;17.38;100.00
12178;BME280;6152;48.728;9.256;2022-08-03T03:50:43;97115.09;;;17.37;100.00
12178;BME280;6152;48.728;9.256;2022-08-03T03:53:13;97114.38;;;17.35;100.00
12178;BME280;6152;48.728;9.256;2022-08-03T03:55:40;97117.00;;;17.35;100.00
12178;BME280;6152;48.728;9.256;2022-08-03T03:58:07;97111.75;;;17.35;100.00
12178;BME280;6152;48.728;9.256;2022-08-03T04:00:34;97110.06;;;17.34;100.00
12178;BME280;6152;48.728;9.256;2022-08-03T04:03:00;97106.47;;;17.35;100.00
12178;BME280;6152;48.728;9.256;2022-08-03T04:05:26;97111.63;;;17.37;100.00
12178;BME280;6152;48.728;9.256;2022-08-03T04:08:16;97109.25;;;17.34;100.00
12178;BME280;6152;48.728;9.256;2022-08-03T04:11:47;97117.66;;;17.28;100.00
12178;BME280;6152;48.728;9.256;2022-08-03T04:14:18;97117.53;;;17.29;100.00
12178;BME280;6152;48.728;9.256;2022-08-03T04:16:51;97115.19;;;17.26;100.00
12178;BME280;6152;48.728;9.256;2022-08-03T04:19:41;97118.34;;;17.20;100.00
12178;BME280;6152;48.728;9.256;2022-08-03T04:22:13;97118.59;;;17.17;100.00
12178;BME280;6152;48.728;9.256;2022-08-03T04:24:43;97115.97;;;17.17;100.00
12178;BME280;6152;48.728;9.256;2022-08-03T04:27:14;97115.00;;;17.18;100.00
12178;BME280;6152;48.728;9.256;2022-08-03T04:29:44;97117.53;;;17.20;100.00
12178;BME280;6152;48.728;9.256;2022-08-03T04:32:12;97122.78;;;17.20;100.00
12178;BME280;6152;48.728;9.256;2022-08-03T04:34:39;97121.94;;;17.19;100.00
12178;BME280;6152;48.728;9.256;2022-08-03T04:37:17;97129.13;;;17.17;100.00
12178;BME280;6152;48.728;9.256;2022-08-03T04:39:47;97136.78;;;17.20;100.00
12178;BME280;6152;48.728;9.256;2022-08-03T04:42:15;97131.94;;;17.25;100.00
12178;BME280;6152;48.728;9.256;2022-08-03T04:44:43;97134.28;;;17.28;100.00
12178;BME280;6152;48.728;9.256;2022-08-03T04:47:11;97136.91;;;17.28;100.00
12178;BME280;6152;48.728;9.256;2022-08-03T04:49:37;97136.63;;;17.31;100.00
12178;BME280;6152;48.728;9.256;2022-08-03T04:52:08;97136.38;;;17.34;100.00
12178;BME280;6152;48.728;9.256;2022-08-03T04:54:44;97139.44;;;17.39;100.00
12178;BME280;6152;48.728;9.256;2022-08-03T04:57:11;97141.13;;;17.40;100.00
12178;BME280;6152;48.728;9.256;2022-08-03T04:59:38;97145.28;;;17.43;100.00
12178;BME280;6152;48.728;9.256;2022-08-03T05:02:04;97144.16;;;17.45;100.00
12178;BME280;6152;48.728;9.256;2022-08-03T05:04:30;97152.78;;;17.47;100.00
12178;BME280;6152;48.728;9.256;2022-08-03T05:06:56;97146.41;;;17.50;100.00
12178;BME280;6152;48.728;9.256;2022-08-03T05:09:22;97150.28;;;17.55;100.00
12178;BME280;6152;48.728;9.256;2022-08-03T05:11:48;97141.19;;;17.59;100.00
12178;BME280;6152;48.728;9.256;2022-08-03T05:14:14;97137.59;;;17.60;100.00
12178;BME280;6152;48.728;9.256;2022-08-03T05:16:41;97150.22;;;17.66;100.00
12178;BME280;6152;48.728;9.256;2022-08-03T05:19:07;97147.31;;;17.70;100.00
12178;BME280;6152;48.728;9.256;2022-08-03T05:21:33;97146.06;;;17.74;100.00
12178;BME280;6152;48.728;9.256;2022-08-03T05:24:00;97151.50;;;17.82;100.00
12178;BME280;6152;48.728;9.256;2022-08-03T05:26:26;97150.94;;;17.88;100.00
12178;BME280;6152;48.728;9.256;2022-08-03T05:28:52;97152.06;;;17.95;100.00
12178;BME280;6152;48.728;9.256;2022-08-03T05:31:18;97154.13;;;18.01;100.00
12178;BME280;6152;48.728;9.256;2022-08-03T05:33:44;97149.16;;;18.07;100.00
12178;BME280;6152;48.728;9.256;2022-08-03T05:36:12;97152.88;;;18.14;100.00
12178;BME280;6152;48.728;9.256;2022-08-03T05:38:38;97161.50;;;18.26;100.00
12178;BME280;6152;48.728;9.256;2022-08-03T05:41:05;97154.00;;;18.31;100.00
12178;BME280;6152;48.728;9.256;2022-08-03T05:43:31;97150.66;;;18.39;100.00
12178;BME280;6152;48.728;9.256;2022-08-03T05:45:57;97148.75;;;18.50;100.00
12178;BME280;6152;48.728;9.256;2022-08-03T05:48:25;97160.94;;;18.51;100.00
12178;BME280;6152;48.728;9.256;2022-08-03T05:50:52;97150.81;;;18.56;100.00
12178;BME280;6152;48.728;9.256;2022-08-03T05:53:18;97156.50;;;18.61;100.00
12178;BME280;6152;48.728;9.256;2022-08-03T05:55:44;97152.59;;;18.65;100.00
12178;BME280;6152;48.728;9.256;2022-08-03T05:58:10;97146.06;;;18.70;100.00
12178;BME280;6152;48.728;9.256;2022-08-03T06:00:36;97149.81;;;18.77;100.00
12178;BME280;6152;48.728;9.256;2022-08-03T06:03:02;97151.72;;;18.84;100.00
12178;BME280;6152;48.728;9.256;2022-08-03T06:05:28;97151.69;;;18.94;100.00
12178;BME280;6152;48.728;9.256;2022-08-03T06:07:55;97153.91;;;18.98;100.00
12178;BME280;6152;48.728;9.256;2022-08-03T06:10:21;97155.00;;;19.05;100.00
12178;BME280;6152;48.728;9.256;2022-08-03T06:12:47;97151.09;;;19.09;100.00
12178;BME280;6152;48.728;9.256;2022-08-03T06:15:14;97158.44;;;19.15;100.00
12178;BME280;6152;48.728;9.256;2022-08-03T06:17:45;97159.66;;;19.21;100.00
12178;BME280;6152;48.728;9.256;2022-08-03T06:20:12;97163.66;;;19.25;100.00
12178;BME280;6152;48.728;9.256;2022-08-03T06:22:38;97165.72;;;19.31;100.00
12178;BME280;6152;48.728;9.256;2022-08-03T06:25:04;97170.69;;;19.34;100.00
12178;BME280;6152;48.728;9.256;2022-08-03T06:27:31;97161.78;;;19.45;100.00
12178;BME280;6152;48.728;9.256;2022-08-03T06:29:57;97168.91;;;19.44;100.00
12178;BME280;6152;48.728;9.256;2022-08-03T06:32:23;97156.50;;;19.45;100.00
12178;BME280;6152;48.728;9.256;2022-08-03T06:34:49;97164.00;;;19.49;100.00
12178;BME280;6152;48.728;9.256;2022-08-03T06:37:16;97157.56;;;19.61;100.00
12178;BME280;6152;48.728;9.256;2022-08-03T06:39:42;97169.19;;;19.69;100.00
12178;BME280;6152;48.728;9.256;2022-08-03T06:42:08;97165.78;;;19.76;100.00
12178;BME280;6152;48.728;9.256;2022-08-03T06:44:35;97167.88;;;19.82;100.00
12178;BME280;6152;48.728;9.256;2022-08-03T06:47:03;97161.97;;;19.88;100.00
12178;BME280;6152;48.728;9.256;2022-08-03T06:49:29;97166.75;;;20.02;100.00
12178;BME280;6152;48.728;9.256;2022-08-03T06:51:55;97168.91;;;20.07;100.00
12178;BME280;6152;48.728;9.256;2022-08-03T06:54:22;97167.56;;;20.21;100.00
12178;BME280;6152;48.728;9.256;2022-08-03T06:56:49;97176.84;;;20.25;100.00
12178;BME280;6152;48.728;9.256;2022-08-03T06:59:15;97173.19;;;20.35;100.00
12178;BME280;6152;48.728;9.256;2022-08-03T07:01:41;97168.66;;;20.45;100.00
12178;BME280;6152;48.728;9.256;2022-08-03T07:04:07;97179.13;;;20.55;100.00
12178;BME280;6152;48.728;9.256;2022-08-03T07:06:34;97180.91;;;20.72;100.00
12178;BME280;6152;48.728;9.256;2022-08-03T07:09:00;97179.19;;;20.81;100.00
12178;BME280;6152;48.728;9.256;2022-08-03T07:11:27;97176.59;;;20.89;100.00
12178;BME280;6152;48.728;9.256;2022-08-03T07:13:53;97180.63;;;21.01;100.00
12178;BME280;6152;48.728;9.256;2022-08-03T07:16:19;97170.56;;;21.04;100.00
12178;BME280;6152;48.728;9.256;2022-08-03T07:18:45;97172.16;;;21.15;100.00
12178;BME280;6152;48.728;9.256;2022-08-03T07:21:12;97170.06;;;21.27;100.00
12178;BME280;6152;48.728;9.256;2022-08-03T07:23:38;97176.28;;;21.43;100.00
12178;BME280;6152;48.728;9.256;2022-08-03T07:26:04;97178.00;;;21.60;100.00
12178;BME280;6152;48.728;9.256;2022-08-03T07:28:31;97170.44;;;21.74;100.00
12178;BME280;6152;48.728;9.256;2022-08-03T07:31:23;97174.13;;;21.89;100.00
12178;BME280;6152;48.728;9.256;2022-08-03T07:33:49;97169.53;;;22.07;100.00
12178;BME280;6152;48.728;9.256;2022-08-03T07:36:16;97169.09;;;22.20;100.00
12178;BME280;6152;48.728;9.256;2022-08-03T07:38:42;97181.03;;;22.32;100.00
12178;BME280;6152;48.728;9.256;2022-08-03T07:41:08;97170.25;;;22.49;97.19
12178;BME280;6152;48.728;9.256;2022-08-03T07:43:34;97174.25;;;22.61;93.88
12178;BME280;6152;48.728;9.256;2022-08-03T07:46:00;97174.44;;;22.84;91.91
12178;BME280;6152;48.728;9.256;2022-08-03T07:48:26;97177.56;;;23.04;91.75
12178;BME280;6152;48.728;9.256;2022-08-03T07:50:55;97173.84;;;23.29;87.70
12178;BME280;6152;48.728;9.256;2022-08-03T07:53:21;97181.78;;;23.53;87.47
12178;BME280;6152;48.728;9.256;2022-08-03T07:55:47;97175.00;;;23.82;85.23
12178;BME280;6152;48.728;9.256;2022-08-03T07:58:13;97171.03;;;24.08;79.91
12178;BME280;6152;48.728;9.256;2022-08-03T08:00:47;97180.31;;;24.43;77.97
12178;BME280;6152;48.728;9.256;2022-08-03T08:03:15;97167.56;;;24.76;75.42
12178;BME280;6152;48.728;9.256;2022-08-03T08:05:41;97167.47;;;25.07;71.66
12178;BME280;6152;48.728;9.256;2022-08-03T08:08:08;97167.59;;;25.43;68.01
12178;BME280;6152;48.728;9.256;2022-08-03T08:10:35;97161.22;;;25.88;66.06
12178;BME280;6152;48.728;9.256;2022-08-03T08:13:02;97168.28;;;26.31;62.72
12178;BME280;6152;48.728;9.256;2022-08-03T08:15:29;97159.25;;;26.75;62.88
12178;BME280;6152;48.728;9.256;2022-08-03T08:17:57;97163.38;;;27.26;62.58
12178;BME280;6152;48.728;9.256;2022-08-03T08:20:30;97165.78;;;27.90;56.19
12178;BME280;6152;48.728;9.256;2022-08-03T08:23:02;97167.47;;;28.71;51.95
12178;BME280;6152;48.728;9.256;2022-08-03T08:25:29;97154.53;;;29.91;48.67
12178;BME280;6152;48.728;9.256;2022-08-03T08:27:56;97156.38;;;30.67;42.96
12178;BME280;6152;48.728;9.256;2022-08-03T08:30:23;97148.94;;;31.18;42.45
12178;BME280;6152;48.728;9.256;2022-08-03T08:32:49;97155.94;;;32.17;41.58
12178;BME280;6152;48.728;9.256;2022-08-03T08:35:17;97154.84;;;32.77;38.48
12178;BME280;6152;48.728;9.256;2022-08-03T08:37:44;97145.53;;;33.26;39.16
12178;BME280;6152;48.728;9.256;2022-08-03T08:40:11;97138.13;;;34.65;36.28
12178;BME280;6152;48.728;9.256;2022-08-03T08:42:38;97141.81;;;35.25;33.93
12178;BME280;6152;48.728;9.256;2022-08-03T08:45:06;97140.88;;;36.13;33.12
12178;BME280;6152;48.728;9.256;2022-08-03T08:47:38;97134.75;;;37.08;30.67
12178;BME280;6152;48.728;9.256;2022-08-03T08:50:06;97127.81;;;38.41;28.84
12178;BME280;6152;48.728;9.256;2022-08-03T08:52:39;97128.91;;;39.42;27.88
12178;BME280;6152;48.728;9.256;2022-08-03T08:55:08;97129.09;;;40.34;25.89
12178;BME280;6152;48.728;9.256;2022-08-03T08:57:37;97125.66;;;41.30;24.69
12178;BME280;6152;48.728;9.256;2022-08-03T09:00:10;97122.91;;;41.83;21.21
12178;BME280;6152;48.728;9.256;2022-08-03T09:02:41;97117.06;;;42.13;22.65
12178;BME280;6152;48.728;9.256;2022-08-03T09:05:10;97123.88;;;42.91;21.87
12178;BME280;6152;48.728;9.256;2022-08-03T09:07:38;97122.53;;;43.53;21.76
12178;BME280;6152;48.728;9.256;2022-08-03T09:10:06;97116.34;;;43.88;20.71
12178;BME280;6152;48.728;9.256;2022-08-03T09:12:46;97122.53;;;44.79;20.49
12178;BME280;6152;48.728;9.256;2022-08-03T09:15:30;97108.69;;;44.12;20.41
12178;BME280;6152;48.728;9.256;2022-08-03T09:17:59;97110.28;;;44.41;20.39
12178;BME280;6152;48.728;9.256;2022-08-03T09:20:28;97116.44;;;44.82;20.06
12178;BME280;6152;48.728;9.256;2022-08-03T09:22:56;97108.28;;;45.21;20.02
12178;BME280;6152;48.728;9.256;2022-08-03T09:25:33;97100.66;;;46.54;18.96
12178;BME280;6152;48.728;9.256;2022-08-03T09:28:09;97106.91;;;46.11;17.92
12178;BME280;6152;48.728;9.256;2022-08-03T09:30:56;97098.97;;;46.36;17.77
12178;BME280;6152;48.728;9.256;2022-08-03T09:33:46;97110.69;;;46.50;18.91
12178;BME280;6152;48.728;9.256;2022-08-03T09:36:34;97098.88;;;47.39;17.49
12178;BME280;6152;48.728;9.256;2022-08-03T09:39:03;97101.88;;;47.16;16.35
12178;BME280;6152;48.728;9.256;2022-08-03T09:41:31;97104.47;;;47.22;16.62
12178;BME280;6152;48.728;9.256;2022-08-03T09:43:58;97099.03;;;47.80;16.78
12178;BME280;6152;48.728;9.256;2022-08-03T09:46:25;97110.78;;;48.06;16.47
12178;BME280;6152;48.728;9.256;2022-08-03T09:48:51;97103.22;;;47.86;16.58
12178;BME280;6152;48.728;9.256;2022-08-03T09:51:23;97105.13;;;48.24;16.99
12178;BME280;6152;48.728;9.256;2022-08-03T09:53:49;97096.28;;;47.42;16.42
12178;BME280;6152;48.728;9.256;2022-08-03T09:56:16;97102.50;;;48.06;17.16
12178;BME280;6152;48.728;9.256;2022-08-03T09:58:46;97099.78;;;49.01;16.16
12178;BME280;6152;48.728;9.256;2022-08-03T10:01:13;97093.31;;;47.01;16.75
12178;BME280;6152;48.728;9.256;2022-08-03T10:03:39;97088.63;;;46.67;17.60
12178;BME280;6152;48.728;9.256;2022-08-03T10:06:18;97092.19;;;48.16;17.15
12178;BME280;6152;48.728;9.256;2022-08-03T10:08:45;97089.03;;;48.46;16.05
12178;BME280;6152;48.728;9.256;2022-08-03T10:11:12;97085.56;;;49.24;15.90
12178;BME280;6152;48.728;9.256;2022-08-03T10:13:54;97089.88;;;49.00;14.82
12178;BME280;6152;48.728;9.256;2022-08-03T10:16:20;97078.56;;;49.87;14.44
12178;BME280;6152;48.728;9.256;2022-08-03T10:18:46;97079.56;;;50.31;14.12
12178;BME280;6152;48.728;9.256;2022-08-03T10:21:16;97083.50;;;51.41;13.76
12178;BME280;6152;48.728;9.256;2022-08-03T10:23:45;97079.25;;;50.72;13.60
12178;BME280;6152;48.728;9.256;2022-08-03T10:26:14;97076.19;;;49.85;13.95
12178;BME280;6152;48.728;9.256;2022-08-03T10:28:48;97078.69;;;49.90;14.27
12178;BME280;6152;48.728;9.256;2022-08-03T10:31:16;97082.84;;;50.09;13.60
12178;BME280;6152;48.728;9.256;2022-08-03T10:33:46;97070.94;;;48.37;14.72
12178;BME280;6152;48.728;9.256;2022-08-03T10:36:14;97081.03;;;48.86;14.15
12178;BME280;6152;48.728;9.256;2022-08-03T10:38:46;97063.78;;;48.36;14.64
12178;BME280;6152;48.728;9.256;2022-08-03T10:41:19;97063.97;;;49.17;14.38
12178;BME280;6152;48.728;9.256;2022-08-03T10:43:52;97066.00;;;49.65;13.42
12178;BME280;6152;48.728;9.256;2022-08-03T10:46:20;97051.94;;;49.82;13.72
12178;BME280;6152;48.728;9.256;2022-08-03T10:48:48;97049.19;;;47.47;14.98
12178;BME280;6152;48.728;9.256;2022-08-03T10:51:15;97051.16;;;47.76;15.18
12178;BME280;6152;48.728;9.256;2022-08-03T10:53:42;97050.69;;;48.45;14.73
12178;BME280;6152;48.728;9.256;2022-08-03T10:59:16;97052.56;;;48.53;14.72
12178;BME280;6152;48.728;9.256;2022-08-03T11:01:49;97058.38;;;49.50;14.19
12178;BME280;6152;48.728;9.256;2022-08-03T11:04:18;97049.81;;;47.91;14.66
12178;BME280;6152;48.728;9.256;2022-08-03T11:06:44;97043.41;;;49.51;13.99
12178;BME280;6152;48.728;9.256;2022-08-03T11:09:15;97045.38;;;48.40;14.53
12178;BME280;6152;48.728;9.256;2022-08-03T11:11:43;97044.53;;;48.81;14.22
12178;BME280;6152;48.728;9.256;2022-08-03T11:14:13;97034.06;;;49.68;13.94
12178;BME280;6152;48.728;9.256;2022-08-03T11:16:48;97038.78;;;49.91;13.76
12178;BME280;6152;48.728;9.256;2022-08-03T11:19:19;97032.56;;;49.34;13.68
12178;BME280;6152;48.728;9.256;2022-08-03T11:27:15;97025.09;;;48.36;14.58
12178;BME280;6152;48.728;9.256;2022-08-03T11:35:09;97011.50;;;47.60;14.74
12178;BME280;6152;48.728;9.256;2022-08-03T11:40:41;97028.78;;;48.19;14.78
12178;BME280;6152;48.728;9.256;2022-08-03T11:43:53;97018.69;;;48.23;15.06
12178;BME280;6152;48.728;9.256;2022-08-03T11:48:36;97016.81;;;46.03;16.12
12178;BME280;6152;48.728;9.256;2022-08-03T11:51:05;97012.66;;;47.80;15.76
12178;BME280;6152;48.728;9.256;2022-08-03T11:53:32;97008.13;;;47.46;15.39
12178;BME280;6152;48.728;9.256;2022-08-03T11:55:59;97017.78;;;48.52;14.93
12178;BME280;6152;48.728;9.256;2022-08-03T11:58:27;97021.09;;;48.66;14.63
12178;BME280;6152;48.728;9.256;2022-08-03T12:01:06;97017.28;;;49.03;15.31
12178;BME280;6152;48.728;9.256;2022-08-03T12:03:34;97012.59;;;49.16;14.83
12178;BME280;6152;48.728;9.256;2022-08-03T12:06:01;97007.63;;;46.51;15.93
12178;BME280;6152;48.728;9.256;2022-08-03T12:08:29;97003.03;;;46.89;16.87
12178;BME280;6152;48.728;9.256;2022-08-03T12:10:57;97007.22;;;47.71;15.33
12178;BME280;6152;48.728;9.256;2022-08-03T12:13:23;97000.34;;;46.55;16.48
12178;BME280;6152;48.728;9.256;2022-08-03T12:15:54;97001.56;;;45.23;16.79
12178;BME280;6152;48.728;9.256;2022-08-03T12:18:22;97005.28;;;44.66;17.24
12178;BME280;6152;48.728;9.256;2022-08-03T12:20:50;97001.50;;;43.95;18.17
12178;BME280;6152;48.728;9.256;2022-08-03T12:23:18;97001.75;;;41.82;19.98
12178;BME280;6152;48.728;9.256;2022-08-03T12:25:46;96991.88;;;42.05;20.29
12178;BME280;6152;48.728;9.256;2022-08-03T12:28:20;97000.00;;;40.73;21.82
12178;BME280;6152;48.728;9.256;2022-08-03T12:30:51;97005.59;;;39.80;23.07
12178;BME280;6152;48.728;9.256;2022-08-03T12:33:23;96996.59;;;37.89;25.07
12178;BME280;6152;48.728;9.256;2022-08-03T12:36:05;97001.47;;;36.73;26.72
12178;BME280;6152;48.728;9.256;2022-08-03T12:38:39;96999.25;;;36.33;27.33
12178;BME280;6152;48.728;9.256;2022-08-03T12:41:09;97005.28;;;36.08;28.39
12178;BME280;6152;48.728;9.256;2022-08-03T12:43:50;97004.78;;;35.19;28.97
12178;BME280;6152;48.728;9.256;2022-08-03T12:46:17;97003.91;;;34.97;28.76
12178;BME280;6152;48.728;9.256;2022-08-03T12:49:13;96992.56;;;34.62;28.99
12178;BME280;6152;48.728;9.256;2022-08-03T12:54:16;96994.81;;;33.46;31.37
12178;BME280;6152;48.728;9.256;2022-08-03T12:59:32;96993.81;;;33.24;31.96
12178;BME280;6152;48.728;9.256;2022-08-03T13:01:59;96986.81;;;33.23;33.14
12178;BME280;6152;48.728;9.256;2022-08-03T13:04:34;96987.69;;;33.40;31.84
12178;BME280;6152;48.728;9.256;2022-08-03T13:07:03;96988.97;;;33.38;31.50
12178;BME280;6152;48.728;9.256;2022-08-03T13:09:39;96989.78;;;33.38;32.46
12178;BME280;6152;48.728;9.256;2022-08-03T13:12:08;96989.25;;;33.25;31.50
12178;BME280;6152;48.728;9.256;2022-08-03T13:14:35;96989.72;;;33.22;31.72
12178;BME280;6152;48.728;9.256;2022-08-03T13:17:02;96985.88;;;33.06;31.43
12178;BME280;6152;48.728;9.256;2022-08-03T13:19:30;96989.66;;;32.82;32.06
12178;BME280;6152;48.728;9.256;2022-08-03T13:21:56;96986.84;;;32.88;31.91
12178;BME280;6152;48.728;9.256;2022-08-03T13:24:22;96988.00;;;32.92;31.79
12178;BME280;6152;48.728;9.256;2022-08-03T13:26:48;96978.16;;;32.98;32.47
12178;BME280;6152;48.728;9.256;2022-08-03T13:29:16;96983.63;;;33.03;30.75
12178;BME280;6152;48.728;9.256;2022-08-03T13:31:42;96983.88;;;33.01;31.59
12178;BME280;6152;48.728;9.256;2022-08-03T13:34:08;96984.97;;;32.89;30.48
12178;BME280;6152;48.728;9.256;2022-08-03T13:36:34;96974.09;;;32.61;30.78
12178;BME280;6152;48.728;9.256;2022-08-03T13:39:00;96974.53;;;32.69;31.62
12178;BME280;6152;48.728;9.256;2022-08-03T13:41:27;96977.22;;;32.81;31.25
12178;BME280;6152;48.728;9.256;2022-08-03T13:43:53;96969.25;;;32.86;31.90
12178;BME280;6152;48.728;9.256;2022-08-03T13:46:21;96975.09;;;32.83;31.78
12178;BME280;6152;48.728;9.256;2022-08-03T13:48:47;96973.72;;;32.69;32.29
12178;BME280;6152;48.728;9.256;2022-08-03T13:51:13;96975.44;;;32.51;33.13
12178;BME280;6152;48.728;9.256;2022-08-03T13:53:39;96975.09;;;32.36;33.40
12178;BME280;6152;48.728;9.256;2022-08-03T13:56:05;96967.34;;;32.51;35.02
12178;BME280;6152;48.728;9.256;2022-08-03T13:58:32;96963.41;;;32.66;34.72